sensor_id;sensor_type;location;lat;lon;timestamp;temperature;humidity
25550;DHT22;13444;50.562;7.262;2022-10-16T00:00:38;14.30;99.90
25550;DHT22;13444;50.562;7.262;2022-10-16T00:03:05;14.30;99.90
25550;DHT22;13444;50.562;7.262;2022-10-16T00:05:31;14.20;99.90
25550;DHT22;13444;50.562;7.262;2022-10-16T00:07:57;14.20;99.90
25550;DHT22;13444;50.562;7.262;2022-10-16T00:10:23;14.20;99.90
25550;DHT22;13444;50.562;7.262;2022-10-16T00:12:48;14.20;99.90
25550;DHT22;13444;50.562;7.262;2022-10-16T00:15:14;14.20;99.90
25550;DHT22;13444;50.562;7.262;2022-10-16T00:17:40;14.20;99.90
25550;DHT22;13444;50.562;7.262;2022-10-16T00:20:06;14.30;99.90
25550;DHT22;13444;50.562;7.262;2022-10-16T00:22:32;14.30;99.90
25550;DHT22;13444;50.562;7.262;2022-10-16T00:24:57;14.20;99.90
25550;DHT22;13444;50.562;7.262;2022-10-16T00:27:23;14.20;99.90
25550;DHT22;13444;50.562;7.262;2022-10-16T00:29:52;14.20;99.90
25550;DHT22;13444;50.562;7.262;2022-10-16T00:32:20;14.20;99.90
25550;DHT22;13444;50.562;7.262;2022-10-16T00:34:46;14.20;99.90
25550;DHT22;13444;50.562;7.262;2022-10-16T00:37:12;14.20;99.90
25550;DHT22;13444;50.562;7.262;2022-10-16T00:39:38;14.10;99.90
25550;DHT22;13444;50.562;7.262;2022-10-16T00:42:04;14.10;99.90
25550;DHT22;13444;50.562;7.262;2022-10-16T00:44:50;14.10;99.90
25550;DHT22;13444;50.562;7.262;2022-10-16T00:52:44;13.90;99.90
25550;DHT22;13444;50.562;7.262;2022-10-16T00:55:11;13.90;99.90
25550;DHT22;13444;50.562;7.262;2022-10-16T00:57:37;13.90;99.90
25550;DHT22;13444;50.562;7.262;2022-10-16T01:00:06;13.90;99.90
25550;DHT22;13444;50.562;7.262;2022-10-16T01:02:32;13.90;99.90
25550;DHT22;13444;50.562;7.262;2022-10-16T01:04:58;13.90;99.90
25550;DHT22;13444;50.562;7.262;2022-10-16T01:10:35;13.90;99.90
25550;DHT22;13444;50.562;7.262;2022-10-16T01:13:16;13.90;99.90
25550;DHT22;13444;50.562;7.262;2022-10-16T01:15:51;13.90;99.90
25550;DHT22;13444;50.562;7.262;2022-10-16T01:21:22;13.80;99.90
25550;DHT22;13444;50.562;7.262;2022-10-16T01:30:01;13.80;99.90
25550;DHT22;13444;50.562;7.262;2022-10-16T01:32:14;13.80;99.90
25550;DHT22;13444;50.562;7.262;2022-10-16T01:34:52;13.70;99.90
25550;DHT22;13444;50.562;7.262;2022-10-16T01:37:27;13.70;99.90
25550;DHT22;13444;50.562;7.262;2022-10-16T01:39:56;13.70;99.90
25550;DHT22;13444;50.562;7.262;2022-10-16T01:42:31;13.70;99.90
25550;DHT22;13444;50.562;7.262;2022-10-16T01:45:00;13.70;99.90
25550;DHT22;13444;50.562;7.262;2022-10-16T01:47:27;13.70;99.90
25550;DHT22;13444;50.562;7.262;2022-10-16T01:49:56;13.70;99.90
25550;DHT22;13444;50.562;7.262;2022-10-16T01:52:25;13.70;99.90
25550;DHT22;13444;50.562;7.262;2022-10-16T01:54:54;13.70;99.90
25550;DHT22;13444;50.562;7.262;2022-10-16T01:57:21;13.70;99.90
25550;DHT22;13444;50.562;7.262;2022-10-16T01:59:52;13.70;99.90
25550;DHT22;13444;50.562;7.262;2022-10-16T02:02:19;13.70;99.90
25550;DHT22;13444;50.562;7.262;2022-10-16T02:05:10;13.70;99.90
25550;DHT22;13444;50.562;7.262;2022-10-16T02:07:33;13.80;99.90
25550;DHT22;13444;50.562;7.262;2022-10-16T02:10:00;13.80;99.90
25550;DHT22;13444;50.562;7.262;2022-10-16T02:12:28;13.70;99.90
25550;DHT22;13444;50.562;7.262;2022-10-16T02:14:56;13.70;99.90
25550;DHT22;13444;50.562;7.262;2022-10-16T02:17:22;13.60;99.90
25550;DHT22;13444;50.562;7.262;2022-10-16T02:19:49;13.60;99.90
25550;DHT22;13444;50.562;7.262;2022-10-16T02:22:40;13.60;99.90
25550;DHT22;13444;50.562;7.262;2022-10-16T02:25:10;13.60;99.90
25550;DHT22;13444;50.562;7.262;2022-10-16T02:30:21;13.60;99.90
25550;DHT22;13444;50.562;7.262;2022-10-16T02:32:49;13.60;99.90
25550;DHT22;13444;50.562;7.262;2022-10-16T02:35:18;13.60;99.90
25550;DHT22;13444;50.562;7.262;2022-10-16T02:37:44;13.60;99.90
25550;DHT22;13444;50.562;7.262;2022-10-16T02:40:11;13.60;99.90
25550;DHT22;13444;50.562;7.262;2022-10-16T02:42:39;13.60;99.90
25550;DHT22;13444;50.562;7.262;2022-10-16T02:45:07;13.60;99.90
25550;DHT22;13444;50.562;7.262;2022-10-16T02:47:33;13.70;99.90
25550;DHT22;13444;50.562;7.262;2022-10-16T02:49:58;13.70;99.90
25550;DHT22;13444;50.562;7.262;2022-10-16T02:52:24;13.70;99.90
25550;DHT22;13444;50.562;7.262;2022-10-16T02:54:50;13.70;99.90
25550;DHT22;13444;50.562;7.262;2022-10-16T02:57:15;13.70;99.90
25550;DHT22;13444;50.562;7.262;2022-10-16T02:59:41;13.80;99.90
25550;DHT22;13444;50.562;7.262;2022-10-16T03:02:07;13.90;99.90
25550;DHT22;13444;50.562;7.262;2022-10-16T03:04:32;13.80;99.90
25550;DHT22;13444;50.562;7.262;2022-10-16T03:06:58;13.90;99.90
25550;DHT22;13444;50.562;7.262;2022-10-16T03:09:23;13.90;99.90
25550;DHT22;13444;50.562;7.262;2022-10-16T03:11:49;14.00;99.90
25550;DHT22;13444;50.562;7.262;2022-10-16T03:14:14;14.00;99.90
25550;DHT22;13444;50.562;7.262;2022-10-16T03:16:40;14.10;99.90
25550;DHT22;13444;50.562;7.262;2022-10-16T03:19:05;14.10;99.90
25550;DHT22;13444;50.562;7.262;2022-10-16T03:21:31;14.10;99.90
25550;DHT22;13444;50.562;7.262;2022-10-16T03:23:56;14.20;99.90
25550;DHT22;13444;50.562;7.262;2022-10-16T03:26:22;14.20;99.90
25550;DHT22;13444;50.562;7.262;2022-10-16T03:28:47;14.30;99.90
25550;DHT22;13444;50.562;7.262;2022-10-16T03:31:13;14.30;99.90
25550;DHT22;13444;50.562;7.262;2022-10-16T03:33:38;14.40;99.90
25550;DHT22;13444;50.562;7.262;2022-10-16T03:36:04;14.40;99.90
25550;DHT22;13444;50.562;7.262;2022-10-16T03:38:30;14.40;99.90
25550;DHT22;13444;50.562;7.262;2022-10-16T03:40:55;14.40;99.90
25550;DHT22;13444;50.562;7.262;2022-10-16T03:43:21;14.40;99.90
25550;DHT22;13444;50.562;7.262;2022-10-16T03:45:46;14.40;99.90
25550;DHT22;13444;50.562;7.262;2022-10-16T03:48:12;14.50;99.90
25550;DHT22;13444;50.562;7.262;2022-10-16T03:50:37;14.40;99.90
25550;DHT22;13444;50.562;7.262;2022-10-16T03:53:03;14.40;99.90
25550;DHT22;13444;50.562;7.262;2022-10-16T03:55:29;14.50;99.90
25550;DHT22;13444;50.562;7.262;2022-10-16T03:57:54;14.50;99.90
25550;DHT22;13444;50.562;7.262;2022-10-16T04:00:20;14.50;99.90
25550;DHT22;13444;50.562;7.262;2022-10-16T04:02:45;14.50;99.90
25550;DHT22;13444;50.562;7.262;2022-10-16T04:05:11;14.50;99.90
25550;DHT22;13444;50.562;7.262;2022-10-16T04:07:36;14.50;99.90
25550;DHT22;13444;50.562;7.262;2022-10-16T04:10:03;14.50;99.90
25550;DHT22;13444;50.562;7.262;2022-10-16T04:12:29;14.50;99.90
25550;DHT22;13444;50.562;7.262;2022-10-16T04:14:55;14.50;99.90
25550;DHT22;13444;50.562;7.262;2022-10-16T04:17:20;14.60;99.90
25550;DHT22;13444;50.562;7.262;2022-10-16T04:19:46;14.50;99.90
25550;DHT22;13444;50.562;7.262;2022-10-16T04:22:11;14.50;99.90
25550;DHT22;13444;50.562;7.262;2022-10-16T04:24:37;14.60;99.90
25550;DHT22;13444;50.562;7.262;2022-10-16T04:27:02;14.60;99.90
25550;DHT22;13444;50.562;7.262;2022-10-16T04:29:28;14.60;99.90
25550;DHT22;13444;50.562;7.262;2022-10-16T04:31:53;14.60;99.90
25550;DHT22;13444;50.562;7.262;2022-10-16T04:34:19;14.60;99.90
25550;DHT22;13444;50.562;7.262;2022-10-16T04:36:47;14.60;99.90
25550;DHT22;13444;50.562;7.262;2022-10-16T04:39:14;14.60;99.90
25550;DHT22;13444;50.562;7.262;2022-10-16T04:41:39;14.60;99.90
25550;DHT22;13444;50.562;7.262;2022-10-16T04:44:05;14.60;99.90
25550;DHT22;13444;50.562;7.262;2022-10-16T04:46:30;14.70;99.90
25550;DHT22;13444;50.562;7.262;2022-10-16T04:48:55;14.70;99.90
25550;DHT22;13444;50.562;7.262;2022-10-16T04:51:21;14.70;99.90
25550;DHT22;13444;50.562;7.262;2022-10-16T04:53:47;14.70;99.90
25550;DHT22;13444;50.562;7.262;2022-10-16T04:56:12;14.70;99.90
25550;DHT22;13444;50.562;7.262;2022-10-16T04:58:38;14.70;99.90
25550;DHT22;13444;50.562;7.262;2022-10-16T05:01:03;14.70;99.90
25550;DHT22;13444;50.562;7.262;2022-10-16T05:03:29;14.70;99.90
25550;DHT22;13444;50.562;7.262;2022-10-16T05:05:54;14.60;99.90
25550;DHT22;13444;50.562;7.262;2022-10-16T05:08:20;14.70;99.90
25550;DHT22;13444;50.562;7.262;2022-10-16T05:10:46;14.70;99.90
25550;DHT22;13444;50.562;7.262;2022-10-16T05:13:11;14.70;99.90
25550;DHT22;13444;50.562;7.262;2022-10-16T05:15:37;14.70;99.90
25550;DHT22;13444;50.562;7.262;2022-10-16T05:18:03;14.70;99.90
25550;DHT22;13444;50.562;7.262;2022-10-16T05:20:28;14.70;99.90
25550;DHT22;13444;50.562;7.262;2022-10-16T05:22:54;14.70;99.90
25550;DHT22;13444;50.562;7.262;2022-10-16T05:25:19;14.70;99.90
25550;DHT22;13444;50.562;7.262;2022-10-16T05:27:48;14.70;99.90
25550;DHT22;13444;50.562;7.262;2022-10-16T05:30:15;14.80;99.90
25550;DHT22;13444;50.562;7.262;2022-10-16T05:32:41;14.80;99.90
25550;DHT22;13444;50.562;7.262;2022-10-16T05:35:06;14.80;99.90
25550;DHT22;13444;50.562;7.262;2022-10-16T05:37:32;14.80;99.90
25550;DHT22;13444;50.562;7.262;2022-10-16T05:39:58;14.80;99.90
25550;DHT22;13444;50.562;7.262;2022-10-16T05:42:23;14.90;99.90
25550;DHT22;13444;50.562;7.262;2022-10-16T05:44:49;14.90;99.90
25550;DHT22;13444;50.562;7.262;2022-10-16T05:47:14;14.90;99.90
25550;DHT22;13444;50.562;7.262;2022-10-16T05:49:40;14.90;99.90
25550;DHT22;13444;50.562;7.262;2022-10-16T05:52:06;15.00;99.90
25550;DHT22;13444;50.562;7.262;2022-10-16T05:54:31;15.00;99.90
25550;DHT22;13444;50.562;7.262;2022-10-16T05:56:57;15.00;99.90
25550;DHT22;13444;50.562;7.262;2022-10-16T05:59:22;15.00;99.90
25550;DHT22;13444;50.562;7.262;2022-10-16T06:01:48;15.00;99.90
25550;DHT22;13444;50.562;7.262;2022-10-16T06:04:14;15.00;99.90
25550;DHT22;13444;50.562;7.262;2022-10-16T06:06:39;15.00;99.90
25550;DHT22;13444;50.562;7.262;2022-10-16T06:09:05;15.00;99.90
25550;DHT22;13444;50.562;7.262;2022-10-16T06:11:32;15.00;99.90
25550;DHT22;13444;50.562;7.262;2022-10-16T06:14:01;15.00;99.90
25550;DHT22;13444;50.562;7.262;2022-10-16T06:16:32;15.00;99.90
25550;DHT22;13444;50.562;7.262;2022-10-16T06:18:57;15.00;99.90
25550;DHT22;13444;50.562;7.262;2022-10-16T06:21:25;15.00;99.90
25550;DHT22;13444;50.562;7.262;2022-10-16T06:23:51;15.00;99.90
25550;DHT22;13444;50.562;7.262;2022-10-16T06:26:19;15.00;99.90
25550;DHT22;13444;50.562;7.262;2022-10-16T06:28:46;15.00;99.90
25550;DHT22;13444;50.562;7.262;2022-10-16T06:31:13;15.00;99.90
25550;DHT22;13444;50.562;7.262;2022-10-16T06:33:39;15.00;99.90
25550;DHT22;13444;50.562;7.262;2022-10-16T06:36:10;15.00;99.90
25550;DHT22;13444;50.562;7.262;2022-10-16T06:38:36;15.00;99.90
25550;DHT22;13444;50.562;7.262;2022-10-16T06:41:03;15.00;99.90
25550;DHT22;13444;50.562;7.262;2022-10-16T06:43:29;15.00;99.90
25550;DHT22;13444;50.562;7.262;2022-10-16T06:46:01;15.00;99.90
25550;DHT22;13444;50.562;7.262;2022-10-16T06:48:27;15.10;99.90
25550;DHT22;13444;50.562;7.262;2022-10-16T06:53:27;15.10;99.90
25550;DHT22;13444;50.562;7.262;2022-10-16T06:55:53;15.00;99.90
25550;DHT22;13444;50.562;7.262;2022-10-16T06:58:18;15.10;99.90
25550;DHT22;13444;50.562;7.262;2022-10-16T07:00:44;15.10;99.90
25550;DHT22;13444;50.562;7.262;2022-10-16T07:03:10;15.10;99.90
25550;DHT22;13444;50.562;7.262;2022-10-16T07:05:39;15.10;99.90
25550;DHT22;13444;50.562;7.262;2022-10-16T07:08:05;15.10;99.90
25550;DHT22;13444;50.562;7.262;2022-10-16T07:10:31;15.10;99.90
25550;DHT22;13444;50.562;7.262;2022-10-16T07:12:56;15.20;99.90
25550;DHT22;13444;50.562;7.262;2022-10-16T07:15:22;15.20;99.90
25550;DHT22;13444;50.562;7.262;2022-10-16T07:17:48;15.20;99.90
25550;DHT22;13444;50.562;7.262;2022-10-16T07:20:14;15.30;99.90
25550;DHT22;13444;50.562;7.262;2022-10-16T07:22:39;15.30;99.90
25550;DHT22;13444;50.562;7.262;2022-10-16T07:25:05;15.30;99.90
25550;DHT22;13444;50.562;7.262;2022-10-16T07:27:31;15.40;99.90
25550;DHT22;13444;50.562;7.262;2022-10-16T07:29:56;15.40;99.90
25550;DHT22;13444;50.562;7.262;2022-10-16T07:32:22;15.40;99.90
25550;DHT22;13444;50.562;7.262;2022-10-16T07:34:47;15.50;99.90
25550;DHT22;13444;50.562;7.262;2022-10-16T07:37:13;15.50;99.90
25550;DHT22;13444;50.562;7.262;2022-10-16T07:39:38;15.60;99.90
25550;DHT22;13444;50.562;7.262;2022-10-16T07:42:04;15.60;99.90
25550;DHT22;13444;50.562;7.262;2022-10-16T07:44:29;15.70;99.90
25550;DHT22;13444;50.562;7.262;2022-10-16T07:46:57;15.80;99.90
25550;DHT22;13444;50.562;7.262;2022-10-16T07:49:23;15.80;99.90
25550;DHT22;13444;50.562;7.262;2022-10-16T07:51:48;15.90;99.90
25550;DHT22;13444;50.562;7.262;2022-10-16T07:54:14;16.00;99.90
25550;DHT22;13444;50.562;7.262;2022-10-16T07:56:39;16.00;99.90
25550;DHT22;13444;50.562;7.262;2022-10-16T07:59:05;16.10;99.90
25550;DHT22;13444;50.562;7.262;2022-10-16T08:01:30;16.20;99.90
25550;DHT22;13444;50.562;7.262;2022-10-16T08:03:56;16.30;99.90
25550;DHT22;13444;50.562;7.262;2022-10-16T08:06:22;16.40;99.90
25550;DHT22;13444;50.562;7.262;2022-10-16T08:08:48;16.40;99.90
25550;DHT22;13444;50.562;7.262;2022-10-16T08:11:13;16.50;99.90
25550;DHT22;13444;50.562;7.262;2022-10-16T08:13:40;16.60;99.90
25550;DHT22;13444;50.562;7.262;2022-10-16T08:16:06;16.60;99.90
25550;DHT22;13444;50.562;7.262;2022-10-16T08:18:34;16.70;99.90
25550;DHT22;13444;50.562;7.262;2022-10-16T08:21:01;16.80;99.90
25550;DHT22;13444;50.562;7.262;2022-10-16T08:23:27;16.80;99.90
25550;DHT22;13444;50.562;7.262;2022-10-16T08:25:53;16.80;99.90
25550;DHT22;13444;50.562;7.262;2022-10-16T08:28:19;16.90;99.90
25550;DHT22;13444;50.562;7.262;2022-10-16T08:30:45;17.00;99.90
25550;DHT22;13444;50.562;7.262;2022-10-16T08:33:11;17.10;99.90
25550;DHT22;13444;50.562;7.262;2022-10-16T08:35:36;17.30;99.90
25550;DHT22;13444;50.562;7.262;2022-10-16T08:38:05;17.60;99.90
25550;DHT22;13444;50.562;7.262;2022-10-16T08:40:33;18.00;99.90
25550;DHT22;13444;50.562;7.262;2022-10-16T08:43:24;18.00;99.90
25550;DHT22;13444;50.562;7.262;2022-10-16T08:46:13;17.90;99.90
25550;DHT22;13444;50.562;7.262;2022-10-16T08:48:46;17.80;99.90
25550;DHT22;13444;50.562;7.262;2022-10-16T08:51:20;17.80;99.90
25550;DHT22;13444;50.562;7.262;2022-10-16T08:53:58;17.90;99.90
25550;DHT22;13444;50.562;7.262;2022-10-16T08:56:25;18.00;99.90
25550;DHT22;13444;50.562;7.262;2022-10-16T08:58:52;18.30;99.90
25550;DHT22;13444;50.562;7.262;2022-10-16T09:01:20;18.50;99.90
25550;DHT22;13444;50.562;7.262;2022-10-16T09:04:00;18.40;99.90
25550;DHT22;13444;50.562;7.262;2022-10-16T09:06:50;18.40;99.90
25550;DHT22;13444;50.562;7.262;2022-10-16T09:14:35;18.30;99.90
25550;DHT22;13444;50.562;7.262;2022-10-16T09:17:25;18.30;99.90
25550;DHT22;13444;50.562;7.262;2022-10-16T09:20:00;18.30;99.90
25550;DHT22;13444;50.562;7.262;2022-10-16T09:22:29;18.30;99.90
25550;DHT22;13444;50.562;7.262;2022-10-16T09:25:00;18.50;99.90
25550;DHT22;13444;50.562;7.262;2022-10-16T09:27:26;18.70;99.90
25550;DHT22;13444;50.562;7.262;2022-10-16T09:29:52;18.80;99.90
25550;DHT22;13444;50.562;7.262;2022-10-16T09:32:20;19.10;99.90
25550;DHT22;13444;50.562;7.262;2022-10-16T09:34:54;19.40;99.90
25550;DHT22;13444;50.562;7.262;2022-10-16T09:37:23;19.80;99.90
25550;DHT22;13444;50.562;7.262;2022-10-16T09:39:54;20.60;99.90
25550;DHT22;13444;50.562;7.262;2022-10-16T09:42:26;21.50;99.90
25550;DHT22;13444;50.562;7.262;2022-10-16T09:44:53;22.10;99.90
25550;DHT22;13444;50.562;7.262;2022-10-16T09:47:24;22.50;99.90
25550;DHT22;13444;50.562;7.262;2022-10-16T09:49:53;22.80;99.90
25550;DHT22;13444;50.562;7.262;2022-10-16T09:52:22;23.10;99.90
25550;DHT22;13444;50.562;7.262;2022-10-16T09:54:59;23.50;99.90
25550;DHT22;13444;50.562;7.262;2022-10-16T09:57:26;24.00;99.90
25550;DHT22;13444;50.562;7.262;2022-10-16T09:59:56;24.00;99.90
25550;DHT22;13444;50.562;7.262;2022-10-16T10:02:34;24.30;99.90
25550;DHT22;13444;50.562;7.262;2022-10-16T10:05:01;24.70;99.90
25550;DHT22;13444;50.562;7.262;2022-10-16T10:07:31;25.20;99.90
25550;DHT22;13444;50.562;7.262;2022-10-16T10:09:59;25.30;99.90
25550;DHT22;13444;50.562;7.262;2022-10-16T10:12:30;25.50;99.90
25550;DHT22;13444;50.562;7.262;2022-10-16T10:15:11;25.50;99.90
25550;DHT22;13444;50.562;7.262;2022-10-16T10:17:48;25.40;99.90
25550;DHT22;13444;50.562;7.262;2022-10-16T10:20:33;25.40;99.90
25550;DHT22;13444;50.562;7.262;2022-10-16T10:23:01;24.80;99.90
25550;DHT22;13444;50.562;7.262;2022-10-16T10:25:31;24.00;99.90
25550;DHT22;13444;50.562;7.262;2022-10-16T10:31:11;23.70;99.90
25550;DHT22;13444;50.562;7.262;2022-10-16T10:33:46;23.90;99.90
25550;DHT22;13444;50.562;7.262;2022-10-16T10:36:35;24.10;99.90
25550;DHT22;13444;50.562;7.262;2022-10-16T10:39:31;24.50;99.90
25550;DHT22;13444;50.562;7.262;2022-10-16T10:47:01;24.70;99.90
25550;DHT22;13444;50.562;7.262;2022-10-16T10:52:33;23.80;99.90
25550;DHT22;13444;50.562;7.262;2022-10-16T11:00:30;24.30;99.90
25550;DHT22;13444;50.562;7.262;2022-10-16T11:05:43;24.10;99.90
25550;DHT22;13444;50.562;7.262;2022-10-16T11:08:21;24.00;99.90
25550;DHT22;13444;50.562;7.262;2022-10-16T11:11:14;23.70;99.90
25550;DHT22;13444;50.562;7.262;2022-10-16T11:17:06;24.00;99.90
25550;DHT22;13444;50.562;7.262;2022-10-16T11:19:42;24.50;99.90
25550;DHT22;13444;50.562;7.262;2022-10-16T11:22:18;24.20;99.90
25550;DHT22;13444;50.562;7.262;2022-10-16T11:28:07;23.20;99.90
25550;DHT22;13444;50.562;7.262;2022-10-16T11:30:49;22.70;99.90
25550;DHT22;13444;50.562;7.262;2022-10-16T11:33:30;22.50;99.90
25550;DHT22;13444;50.562;7.262;2022-10-16T11:36:08;22.30;99.90
25550;DHT22;13444;50.562;7.262;2022-10-16T11:38:41;22.20;99.90
25550;DHT22;13444;50.562;7.262;2022-10-16T11:41:39;22.10;99.90
25550;DHT22;13444;50.562;7.262;2022-10-16T11:53:23;22.80;99.90
25550;DHT22;13444;50.562;7.262;2022-10-16T11:55:52;23.00;99.90
25550;DHT22;13444;50.562;7.262;2022-10-16T11:58:30;22.90;99.90
25550;DHT22;13444;50.562;7.262;2022-10-16T12:03:41;22.70;99.90
25550;DHT22;13444;50.562;7.262;2022-10-16T12:09:04;22.30;99.90
25550;DHT22;13444;50.562;7.262;2022-10-16T12:11:36;22.10;99.90
25550;DHT22;13444;50.562;7.262;2022-10-16T12:16:32;21.50;99.90
25550;DHT22;13444;50.562;7.262;2022-10-16T12:19:14;21.40;99.90
25550;DHT22;13444;50.562;7.262;2022-10-16T12:21:41;21.40;99.90
25550;DHT22;13444;50.562;7.262;2022-10-16T12:24:36;21.20;99.90
25550;DHT22;13444;50.562;7.262;2022-10-16T12:27:05;21.30;99.90
25550;DHT22;13444;50.562;7.262;2022-10-16T12:29:41;21.30;99.90
25550;DHT22;13444;50.562;7.262;2022-10-16T12:32:38;21.40;99.90
25550;DHT22;13444;50.562;7.262;2022-10-16T12:35:06;21.60;99.90
25550;DHT22;13444;50.562;7.262;2022-10-16T12:37:42;21.70;99.90
25550;DHT22;13444;50.562;7.262;2022-10-16T12:40:24;21.70;99.90
25550;DHT22;13444;50.562;7.262;2022-10-16T12:42:51;21.70;99.90
25550;DHT22;13444;50.562;7.262;2022-10-16T12:45:31;21.80;99.90
25550;DHT22;13444;50.562;7.262;2022-10-16T12:47:59;21.90;99.90
25550;DHT22;13444;50.562;7.262;2022-10-16T12:53:00;22.40;99.90
25550;DHT22;13444;50.562;7.262;2022-10-16T12:55:27;22.50;99.90
25550;DHT22;13444;50.562;7.262;2022-10-16T13:00:57;22.60;99.90
25550;DHT22;13444;50.562;7.262;2022-10-16T13:03:43;22.40;99.90
25550;DHT22;13444;50.562;7.262;2022-10-16T13:12:12;22.10;99.90
25550;DHT22;13444;50.562;7.262;2022-10-16T13:17:58;22.00;99.90
25550;DHT22;13444;50.562;7.262;2022-10-16T13:20:36;22.10;99.90
25550;DHT22;13444;50.562;7.262;2022-10-16T13:23:23;22.00;99.90
25550;DHT22;13444;50.562;7.262;2022-10-16T13:25:57;21.90;99.90
25550;DHT22;13444;50.562;7.262;2022-10-16T13:28:30;21.90;99.90
25550;DHT22;13444;50.562;7.262;2022-10-16T13:30:58;21.90;99.90
25550;DHT22;13444;50.562;7.262;2022-10-16T13:33:39;21.90;99.90
25550;DHT22;13444;50.562;7.262;2022-10-16T13:36:06;22.00;99.90
25550;DHT22;13444;50.562;7.262;2022-10-16T13:38:36;22.00;99.90
25550;DHT22;13444;50.562;7.262;2022-10-16T13:41:13;22.00;99.90
25550;DHT22;13444;50.562;7.262;2022-10-16T13:43:53;21.90;99.90
25550;DHT22;13444;50.562;7.262;2022-10-16T13:46:23;21.90;99.90
25550;DHT22;13444;50.562;7.262;2022-10-16T13:48:59;21.90;99.90
25550;DHT22;13444;50.562;7.262;2022-10-16T13:51:26;21.80;99.90
25550;DHT22;13444;50.562;7.262;2022-10-16T13:53:51;21.70;99.90
25550;DHT22;13444;50.562;7.262;2022-10-16T13:56:19;21.80;99.90
25550;DHT22;13444;50.562;7.262;2022-10-16T13:58:46;21.80;99.90
25550;DHT22;13444;50.562;7.262;2022-10-16T14:01:32;21.70;99.90
25550;DHT22;13444;50.562;7.262;2022-10-16T14:04:08;21.70;99.90
25550;DHT22;13444;50.562;7.262;2022-10-16T14:06:35;21.60;99.90
25550;DHT22;13444;50.562;7.262;2022-10-16T14:09:27;21.60;99.90
25550;DHT22;13444;50.562;7.262;2022-10-16T14:11:54;21.40;99.90
25550;DHT22;13444;50.562;7.262;2022-10-16T14:14:21;21.20;99.90
25550;DHT22;13444;50.562;7.262;2022-10-16T14:16:48;21.20;99.90
25550;DHT22;13444;50.562;7.262;2022-10-16T14:19:25;21.20;99.90
25550;DHT22;13444;50.562;7.262;2022-10-16T14:21:52;21.10;99.90
25550;DHT22;13444;50.562;7.262;2022-10-16T14:26:56;21.00;99.90
25550;DHT22;13444;50.562;7.262;2022-10-16T14:29:24;21.00;99.90
25550;DHT22;13444;50.562;7.262;2022-10-16T14:32:04;21.00;99.90
25550;DHT22;13444;50.562;7.262;2022-10-16T14:34:37;20.90;99.90
25550;DHT22;13444;50.562;7.262;2022-10-16T14:37:26;20.90;99.90
25550;DHT22;13444;50.562;7.262;2022-10-16T14:39:52;20.90;99.90
25550;DHT22;13444;50.562;7.262;2022-10-16T14:42:20;20.70;99.90
25550;DHT22;13444;50.562;7.262;2022-10-16T14:44:48;20.70;99.90
25550;DHT22;13444;50.562;7.262;2022-10-16T14:47:20;20.70;99.90
25550;DHT22;13444;50.562;7.262;2022-10-16T14:49:51;20.70;99.90
25550;DHT22;13444;50.562;7.262;2022-10-16T14:52:18;20.70;99.90
25550;DHT22;13444;50.562;7.262;2022-10-16T14:54:43;20.60;99.90
25550;DHT22;13444;50.562;7.262;2022-10-16T14:57:17;20.60;99.90
25550;DHT22;13444;50.562;7.262;2022-10-16T14:59:43;20.50;99.90
25550;DHT22;13444;50.562;7.262;2022-10-16T15:02:29;20.40;99.90
25550;DHT22;13444;50.562;7.262;2022-10-16T15:04:55;20.30;99.90
25550;DHT22;13444;50.562;7.262;2022-10-16T15:07:21;20.30;99.90
25550;DHT22;13444;50.562;7.262;2022-10-16T15:09:47;20.30;99.90
25550;DHT22;13444;50.562;7.262;2022-10-16T15:12:12;20.30;99.90
25550;DHT22;13444;50.562;7.262;2022-10-16T15:14:38;20.20;99.90
25550;DHT22;13444;50.562;7.262;2022-10-16T15:17:04;20.20;99.90
25550;DHT22;13444;50.562;7.262;2022-10-16T15:19:30;20.20;99.90
25550;DHT22;13444;50.562;7.262;2022-10-16T15:21:56;20.10;99.90
25550;DHT22;13444;50.562;7.262;2022-10-16T15:24:21;20.10;99.90
25550;DHT22;13444;50.562;7.262;2022-10-16T15:26:47;20.10;99.90
25550;DHT22;13444;50.562;7.262;2022-10-16T15:29:14;20.00;99.90
25550;DHT22;13444;50.562;7.262;2022-10-16T15:31:39;20.00;99.90
25550;DHT22;13444;50.562;7.262;2022-10-16T15:34:08;19.90;99.90
25550;DHT22;13444;50.562;7.262;2022-10-16T15:36:35;19.90;99.90
25550;DHT22;13444;50.562;7.262;2022-10-16T15:39:10;19.90;99.90
25550;DHT22;13444;50.562;7.262;2022-10-16T15:41:37;19.90;99.90
25550;DHT22;13444;50.562;7.262;2022-10-16T15:44:03;19.80;99.90
25550;DHT22;13444;50.562;7.262;2022-10-16T15:46:28;19.80;99.90
25550;DHT22;13444;50.562;7.262;2022-10-16T15:48:57;19.80;99.90
25550;DHT22;13444;50.562;7.262;2022-10-16T15:51:23;19.70;99.90
25550;DHT22;13444;50.562;7.262;2022-10-16T15:53:49;19.70;99.90
25550;DHT22;13444;50.562;7.262;2022-10-16T15:56:16;19.60;99.90
25550;DHT22;13444;50.562;7.262;2022-10-16T15:58:43;19.70;99.90
25550;DHT22;13444;50.562;7.262;2022-10-16T16:01:09;19.60;99.90
25550;DHT22;13444;50.562;7.262;2022-10-16T16:03:36;19.60;99.90
25550;DHT22;13444;50.562;7.262;2022-10-16T16:06:10;19.60;99.90
25550;DHT22;13444;50.562;7.262;2022-10-16T16:08:36;19.50;99.90
25550;DHT22;13444;50.562;7.262;2022-10-16T16:11:13;19.50;99.90
25550;DHT22;13444;50.562;7.262;2022-10-16T16:13:40;19.50;99.90
25550;DHT22;13444;50.562;7.262;2022-10-16T16:16:07;19.50;99.90
25550;DHT22;13444;50.562;7.262;2022-10-16T16:18:33;19.40;99.90
25550;DHT22;13444;50.562;7.262;2022-10-16T16:20:59;19.40;99.90
25550;DHT22;13444;50.562;7.262;2022-10-16T16:23:24;19.40;99.90
25550;DHT22;13444;50.562;7.262;2022-10-16T16:28:35;19.30;99.90
25550;DHT22;13444;50.562;7.262;2022-10-16T16:31:01;19.30;99.90
25550;DHT22;13444;50.562;7.262;2022-10-16T16:33:26;19.20;99.90
25550;DHT22;13444;50.562;7.262;2022-10-16T16:35:56;19.20;99.90
25550;DHT22;13444;50.562;7.262;2022-10-16T16:38:22;19.20;99.90
25550;DHT22;13444;50.562;7.262;2022-10-16T16:40:48;19.20;99.90
25550;DHT22;13444;50.562;7.262;2022-10-16T16:43:13;19.20;99.90
25550;DHT22;13444;50.562;7.262;2022-10-16T16:45:39;19.20;99.90
25550;DHT22;13444;50.562;7.262;2022-10-16T16:48:04;19.20;99.90
25550;DHT22;13444;50.562;7.262;2022-10-16T16:50:35;19.10;99.90
25550;DHT22;13444;50.562;7.262;2022-10-16T16:53:01;19.00;99.90
25550;DHT22;13444;50.562;7.262;2022-10-16T16:55:26;19.00;99.90
25550;DHT22;13444;50.562;7.262;2022-10-16T16:57:52;19.00;99.90
25550;DHT22;13444;50.562;7.262;2022-10-16T17:00:18;18.90;99.90
25550;DHT22;13444;50.562;7.262;2022-10-16T17:02:43;18.90;99.90
25550;DHT22;13444;50.562;7.262;2022-10-16T17:05:10;18.90;99.90
25550;DHT22;13444;50.562;7.262;2022-10-16T17:07:35;18.90;99.90
25550;DHT22;13444;50.562;7.262;2022-10-16T17:10:02;18.90;99.90
25550;DHT22;13444;50.562;7.262;2022-10-16T17:12:29;18.80;99.90